This is the latest recevied weather packets stored in our database for station/object N8AMF. If no packets are shown the sender has not sent any weather packets the latest 1 day(s).
| Time | Temp. | Humidity | Pressure | Rain* | Wind** | Luminosity | Snow |
|---|---|---|---|---|---|---|---|
| 1778107457 | 10° C | 66% | 1012.2 hPa | 0 mm | - | 99 W/m² | - |
| 1778105939 | 10.56° C | 64% | 1012.2 hPa | 0 mm | - | 108 W/m² | - |
| 1778105334 | 10.56° C | 64% | 1012.1 hPa | 0 mm | - | 118 W/m² | - |
| 1778104727 | 11.11° C | 62% | 1012 hPa | 0 mm | - | 89 W/m² | - |
| 1778101995 | 11.67° C | 61% | 1011.3 hPa | 0 mm | - | 197 W/m² | - |
| 1778101389 | 11.67° C | 60% | 1011.3 hPa | 0 mm | - | 237 W/m² | - |
| 1778099874 | 12.22° C | 62% | 1011.3 hPa | 0 mm | - | 389 W/m² | - |
| 1778099571 | 12.78° C | 59% | 1011.2 hPa | 0 mm | - | 385 W/m² | - |
| 1778099268 | 12.78° C | 58% | 1011.4 hPa | 0 mm | - | 719 W/m² | - |
| 1778098358 | 11.67° C | 60% | 1011.5 hPa | 0 mm | - | 214 W/m² | - |
| 1778096842 | 12.22° C | 51% | 1011.3 hPa | 0 mm | - | 261 W/m² | - |
| 1778094719 | 13.89° C | 46% | 1011.3 hPa | 0 mm | - | 937 W/m² | - |
| 1778094113 | 13.33° C | 55% | 1011.5 hPa | 0 mm | - | 546 W/m² | - |
| 1778093204 | 12.78° C | 57% | 1011.7 hPa | 0 mm | - | 498 W/m² | - |
| 1778091688 | 12.78° C | 68% | 1011.7 hPa | 0 mm | - | 570 W/m² | - |
| 1778091386 | 12.78° C | 69% | 1011.5 hPa | 0 mm | - | 877 W/m² | - |
| 1778090476 | 11.67° C | 72% | 1011.8 hPa | 0 mm | - | 540 W/m² | - |
| 1778088658 | 11.11° C | 75% | 1011.8 hPa | 0 mm | - | 1114 W/m² | - |
| 1778087144 | 11.67° C | 75% | 1011.7 hPa | 0 mm | - | 655 W/m² | - |
| 1778086534 | 11.67° C | 74% | 1012.1 hPa | 0 mm | - | 580 W/m² | - |
| 1778085927 | 11.67° C | 73% | 1012 hPa | 0 mm | - | 1104 W/m² | - |
| 1778085320 | 11.67° C | 72% | 1011.7 hPa | 0 mm | - | 575 W/m² | - |
| 1778084107 | 11.11° C | 73% | 1011.4 hPa | 0 mm | - | 900 W/m² | - |
| 1778081480 | 11.11° C | 77% | 1011 hPa | 0 mm | - | 854 W/m² | - |
| 1778081177 | 11.11° C | 79% | 1011.2 hPa | 0 mm | - | 851 W/m² | - |
* Rain latest hour (hover to see other rain measurements)
** Current wind speed in m/s (hover to see current wind gust speed)